createdAt,value
2018-09-17T00:00:44.704Z,14.63
2018-09-17T00:03:17.344Z,16.67
2018-09-17T00:05:50.801Z,20.68
2018-09-17T00:08:23.633Z,18.52
2018-09-17T00:10:56.523Z,21.93
2018-09-17T00:13:29.184Z,19.10
2018-09-17T00:16:01.939Z,17.15
2018-09-17T00:18:35.204Z,12.60
2018-09-17T00:21:07.839Z,14.07
2018-09-17T00:23:41.112Z,14.50
2018-09-17T00:26:13.977Z,16.55
2018-09-17T00:28:46.602Z,15.63
2018-09-17T00:31:19.362Z,14.98
2018-09-17T00:33:52.009Z,19.55
2018-09-17T00:36:24.653Z,24.25
2018-09-17T00:38:57.850Z,21.37
2018-09-17T00:41:30.478Z,22.20
2018-09-17T00:44:03.933Z,19.23
2018-09-17T00:46:36.559Z,21.48
2018-09-17T00:49:09.382Z,20.88
2018-09-17T00:51:42.671Z,22.33
2018-09-17T00:54:15.422Z,18.23
2018-09-17T00:56:48.099Z,17.35
2018-09-17T00:59:20.890Z,15.95
2018-09-17T01:01:53.698Z,20.25
2018-09-17T01:04:26.347Z,19.15
2018-09-17T01:06:59.105Z,29.52
2018-09-17T01:09:37.682Z,22.87
2018-09-17T01:12:12.881Z,24.77
2018-09-17T01:17:36.348Z,22.90
2018-09-17T01:20:09.059Z,22.45
2018-09-17T01:22:41.682Z,27.48
2018-09-17T01:25:14.364Z,23.07
2018-09-17T01:27:48.008Z,22.13
2018-09-17T01:30:20.854Z,26.85
2018-09-17T01:32:53.704Z,20.00
2018-09-17T01:35:26.529Z,24.30
2018-09-17T01:38:00.047Z,24.63
2018-09-17T01:40:33.333Z,27.90
2018-09-17T01:43:06.471Z,28.32
2018-09-17T01:45:40.599Z,32.97
2018-09-17T01:48:14.558Z,25.27
2018-09-17T01:50:47.161Z,25.72
2018-09-17T01:53:20.902Z,21.13
2018-09-17T01:55:54.301Z,22.50
2018-09-17T01:58:29.778Z,29.87
2018-09-17T02:01:02.374Z,21.33
2018-09-17T02:03:36.316Z,21.30
2018-09-17T02:06:09.622Z,28.17
2018-09-17T02:08:42.391Z,22.20
2018-09-17T02:11:15.662Z,23.50
2018-09-17T02:13:48.352Z,22.65
2018-09-17T02:16:21.754Z,24.10
2018-09-17T02:18:54.420Z,20.00
2018-09-17T02:21:29.932Z,21.97
2018-09-17T02:24:02.962Z,19.93
2018-09-17T02:26:36.072Z,22.42
2018-09-17T02:29:08.827Z,17.20
2018-09-17T02:31:42.285Z,22.77
2018-09-17T02:34:15.706Z,20.80
2018-09-17T02:36:48.452Z,17.60
2018-09-17T02:39:21.090Z,23.20
2018-09-17T02:41:54.560Z,33.43
2018-09-17T02:44:27.225Z,21.03
2018-09-17T02:46:59.995Z,27.17
2018-09-17T02:49:33.525Z,27.97
2018-09-17T02:52:06.188Z,22.70
2018-09-17T02:54:38.929Z,22.07
2018-09-17T02:57:11.676Z,27.30
2018-09-17T02:59:48.305Z,21.17
2018-09-17T03:02:21.090Z,21.27
2018-09-17T03:04:53.752Z,22.13
2018-09-17T03:07:26.543Z,23.77
2018-09-17T03:09:59.278Z,30.03
2018-09-17T03:12:31.934Z,21.13
2018-09-17T03:15:17.140Z,19.00
2018-09-17T03:17:49.892Z,15.43
2018-09-17T03:20:23.053Z,19.97
2018-09-17T03:22:55.729Z,18.67
2018-09-17T03:25:29.244Z,27.40
2018-09-17T03:28:01.942Z,19.90
2018-09-17T03:30:34.855Z,16.47
2018-09-17T03:33:08.241Z,17.20
2018-09-17T03:35:41.075Z,14.17
2018-09-17T03:38:30.816Z,11.20
2018-09-17T03:41:05.426Z,18.17
2018-09-17T03:43:39.461Z,11.57
2018-09-17T03:46:12.302Z,15.07
2018-09-17T03:48:46.195Z,15.03
2018-09-17T03:51:19.781Z,17.70
2018-09-17T03:53:52.567Z,16.63
2018-09-17T03:56:25.475Z,23.20
2018-09-17T03:58:59.840Z,18.17
2018-09-17T04:01:32.693Z,15.88
2018-09-17T04:04:06.722Z,17.57
2018-09-17T04:06:39.760Z,20.83
2018-09-17T04:09:13.096Z,16.27
2018-09-17T04:11:46.082Z,20.97
2018-09-17T04:14:19.837Z,18.77
2018-09-17T04:16:52.731Z,14.37
2018-09-17T04:19:25.566Z,12.37
2018-09-17T04:21:58.468Z,20.93
2018-09-17T04:24:31.293Z,18.47
2018-09-17T04:29:50.043Z,16.43
2018-09-17T04:32:22.739Z,16.13
2018-09-17T04:34:56.038Z,22.60
2018-09-17T04:37:28.809Z,22.30
2018-09-17T04:40:01.592Z,19.40
2018-09-17T04:42:34.837Z,17.83
2018-09-17T04:45:07.671Z,19.53
2018-09-17T04:47:40.350Z,23.33
2018-09-17T04:50:13.855Z,10.77
2018-09-17T04:52:47.437Z,15.87
2018-09-17T04:55:21.168Z,16.63
2018-09-17T04:57:53.960Z,26.17
2018-09-17T05:00:27.605Z,22.27
2018-09-17T05:03:01.090Z,24.00
2018-09-17T05:05:33.770Z,16.23
2018-09-17T05:08:06.635Z,15.93
2018-09-17T05:10:52.370Z,17.73
2018-09-17T05:13:25.180Z,9.17
2018-09-17T05:15:57.948Z,22.47
2018-09-17T05:18:30.660Z,20.13
2018-09-17T05:21:03.647Z,13.50
2018-09-17T05:23:37.137Z,11.13
2018-09-17T05:26:10.040Z,17.27
2018-09-17T05:28:43.644Z,24.00
2018-09-17T05:31:16.500Z,16.77
2018-09-17T05:33:49.845Z,15.73
2018-09-17T05:36:22.709Z,12.27
2018-09-17T05:39:05.721Z,24.17
2018-09-17T05:41:39.249Z,15.40
2018-09-17T05:44:13.255Z,24.37
2018-09-17T05:46:46.048Z,26.67
2018-09-17T05:50:19.225Z,30.20
2018-09-17T05:52:52.548Z,19.30
2018-09-17T05:55:25.354Z,13.03
2018-09-17T05:57:58.743Z,13.33
2018-09-17T06:00:31.553Z,13.43
2018-09-17T06:03:04.274Z,12.97
2018-09-17T06:05:37.912Z,10.40
2018-09-17T06:08:10.633Z,3.27
2018-09-17T06:10:44.403Z,12.30
2018-09-17T06:13:17.798Z,7.23
2018-09-17T06:15:50.416Z,9.20
2018-09-17T06:18:23.837Z,7.33
2018-09-17T06:20:59.254Z,11.20
2018-09-17T06:23:34.954Z,10.03
2018-09-17T06:26:07.617Z,10.33
2018-09-17T06:28:42.544Z,12.17
2018-09-17T06:31:15.772Z,12.15
2018-09-17T06:33:49.136Z,11.97
2018-09-17T06:36:22.477Z,13.73
2018-09-17T06:38:55.634Z,7.47
2018-09-17T06:41:28.765Z,11.17
2018-09-17T06:44:02.152Z,12.87
2018-09-17T06:46:34.994Z,8.90
2018-09-17T06:49:08.692Z,10.63
2018-09-17T06:51:44.430Z,11.57
2018-09-17T06:54:17.120Z,10.80
2018-09-17T06:56:49.898Z,16.30
2018-09-17T06:59:23.149Z,14.20
2018-09-17T07:01:57.463Z,6.27
2018-09-17T07:04:30.390Z,14.17
2018-09-17T07:07:05.029Z,15.33
2018-09-17T07:09:37.796Z,12.53
2018-09-17T07:15:42.673Z,9.70
2018-09-17T07:18:47.013Z,7.47
2018-09-17T07:21:28.669Z,14.93
2018-09-17T07:24:01.440Z,9.45
2018-09-17T07:26:34.199Z,12.97
2018-09-17T07:29:07.042Z,11.97
2018-09-17T07:31:39.857Z,16.40
2018-09-17T07:34:13.904Z,8.53
2018-09-17T07:36:47.097Z,12.40
2018-09-17T07:39:19.810Z,13.65
2018-09-17T07:41:53.640Z,19.40
2018-09-17T07:44:26.338Z,5.58
2018-09-17T07:46:59.002Z,11.68
2018-09-17T07:49:31.634Z,7.15
2018-09-17T07:52:04.609Z,6.53
2018-09-17T07:54:37.306Z,10.68
2018-09-17T07:57:10.065Z,6.85
2018-09-17T07:59:42.695Z,8.35
2018-09-17T08:02:15.339Z,8.08
2018-09-17T08:04:48.117Z,10.82
2018-09-17T08:07:22.072Z,6.42
2018-09-17T08:09:54.718Z,16.70
2018-09-17T08:12:27.347Z,16.07
2018-09-17T08:15:00.288Z,11.38
2018-09-17T08:17:33.036Z,8.98
2018-09-17T08:20:05.991Z,6.53
2018-09-17T08:22:38.664Z,9.63
2018-09-17T08:25:11.323Z,11.95
2018-09-17T08:27:44.076Z,15.58
2018-09-17T08:30:16.725Z,11.63
2018-09-17T08:32:49.415Z,12.55
2018-09-17T08:35:22.905Z,14.28
2018-09-17T08:37:55.636Z,10.23
2018-09-17T08:40:28.281Z,10.43
2018-09-17T08:43:01.130Z,15.18
2018-09-17T08:45:33.848Z,8.05
2018-09-17T08:48:06.612Z,9.93
2018-09-17T08:50:39.338Z,16.25
2018-09-17T08:53:12.144Z,8.38
2018-09-17T08:55:45.835Z,8.55
2018-09-17T08:58:29.863Z,15.60
2018-09-17T09:01:03.817Z,15.28
2018-09-17T09:03:38.614Z,8.73
2018-09-17T09:06:16.625Z,13.62
2018-09-17T09:08:49.598Z,6.67
2018-09-17T09:11:32.968Z,7.10
2018-09-17T09:14:39.612Z,9.13
2018-09-17T09:17:12.211Z,8.75
2018-09-17T09:19:45.006Z,10.80
2018-09-17T09:22:18.049Z,13.40
2018-09-17T09:24:50.709Z,7.28
2018-09-17T09:27:23.393Z,9.13
2018-09-17T09:29:56.236Z,12.65
2018-09-17T09:32:28.958Z,18.57
2018-09-17T09:35:01.805Z,8.25
2018-09-17T09:37:35.143Z,11.00
2018-09-17T09:40:07.893Z,13.10
2018-09-17T09:42:41.054Z,12.20
2018-09-17T09:45:14.714Z,10.90
2018-09-17T09:47:47.516Z,8.05
2018-09-17T09:50:20.302Z,10.00
2018-09-17T09:52:53.175Z,13.10
2018-09-17T09:55:26.049Z,13.58
2018-09-17T09:57:59.060Z,14.05
2018-09-17T10:00:37.321Z,12.75
2018-09-17T10:03:20.592Z,11.65
2018-09-17T10:05:53.538Z,3.90
2018-09-17T10:08:26.362Z,10.10
2018-09-17T10:11:06.566Z,11.03
2018-09-17T10:13:46.485Z,9.35
2018-09-17T10:16:20.362Z,12.65
2018-09-17T10:18:58.821Z,10.68
2018-09-17T10:21:31.694Z,15.45
2018-09-17T10:24:04.813Z,17.90
2018-09-17T10:26:37.688Z,12.75
2018-09-17T10:29:10.478Z,12.15
2018-09-17T10:31:43.748Z,12.15
2018-09-17T10:34:16.432Z,13.88
2018-09-17T10:36:49.169Z,13.08
2018-09-17T10:39:22.561Z,14.73
2018-09-17T10:41:55.450Z,13.15
2018-09-17T10:44:28.386Z,9.95
2018-09-17T10:47:01.261Z,8.38
2018-09-17T10:49:34.268Z,19.20
2018-09-17T10:52:07.109Z,10.68
2018-09-17T10:54:40.211Z,23.62
2018-09-17T10:57:13.417Z,13.58
2018-09-17T10:59:46.315Z,15.25
2018-09-17T11:02:19.162Z,15.00
2018-09-17T11:04:52.147Z,11.10
2018-09-17T11:07:24.941Z,6.90
2018-09-17T11:09:57.610Z,7.03
2018-09-17T11:12:30.413Z,10.45
2018-09-17T11:15:03.482Z,9.73
2018-09-17T11:17:36.320Z,7.95
2018-09-17T11:20:09.240Z,12.85
2018-09-17T11:22:42.152Z,13.28
2018-09-17T11:25:15.112Z,6.47
2018-09-17T11:27:48.486Z,8.93
2018-09-17T11:30:21.715Z,10.32
2018-09-17T11:32:54.572Z,13.10
2018-09-17T11:35:27.211Z,13.32
2018-09-17T11:38:00.959Z,9.03
2018-09-17T11:40:33.624Z,13.68
2018-09-17T11:43:06.310Z,15.15
2018-09-17T11:45:39.131Z,13.38
2018-09-17T11:48:11.824Z,7.47
2018-09-17T11:50:44.504Z,6.67
2018-09-17T11:53:17.166Z,11.30
2018-09-17T11:56:06.743Z,11.20
2018-09-17T11:58:39.484Z,15.85
2018-09-17T12:01:17.861Z,9.88
2018-09-17T12:03:56.393Z,13.13
2018-09-17T12:06:36.720Z,10.82
2018-09-17T12:09:10.108Z,9.58
2018-09-17T12:11:42.871Z,5.55
2018-09-17T12:14:15.656Z,8.95
2018-09-17T12:16:48.317Z,11.48
2018-09-17T12:19:21.855Z,15.50
2018-09-17T12:21:54.534Z,8.18
2018-09-17T12:24:27.243Z,14.07
2018-09-17T12:27:00.039Z,9.05
2018-09-17T12:29:33.143Z,7.75
2018-09-17T12:32:05.974Z,15.40
2018-09-17T12:34:38.713Z,8.73
2018-09-17T12:37:11.367Z,7.28
2018-09-17T12:39:44.244Z,8.85
2018-09-17T12:42:16.962Z,10.63
2018-09-17T12:44:49.738Z,11.10
2018-09-17T12:47:22.631Z,7.75
2018-09-17T12:49:55.396Z,3.85
2018-09-17T12:52:28.111Z,8.35
2018-09-17T12:55:00.781Z,10.85
2018-09-17T12:57:33.480Z,3.80
2018-09-17T13:00:06.900Z,8.03
2018-09-17T13:02:39.664Z,5.15
2018-09-17T13:05:12.475Z,16.95
2018-09-17T13:07:45.215Z,6.45
2018-09-17T13:10:17.860Z,6.45
2018-09-17T13:12:50.549Z,5.25
2018-09-17T13:15:23.203Z,8.43
2018-09-17T13:17:55.992Z,6.60
2018-09-17T13:20:28.695Z,7.10
2018-09-17T13:23:02.383Z,5.00
2018-09-17T13:25:35.254Z,11.75
2018-09-17T13:28:08.318Z,8.03
2018-09-17T13:30:41.202Z,5.40
2018-09-17T13:33:14.071Z,6.40
2018-09-17T13:35:46.752Z,6.53
2018-09-17T13:38:19.603Z,10.95
2018-09-17T13:40:52.272Z,10.00
2018-09-17T13:43:25.246Z,12.25
2018-09-17T13:45:57.936Z,7.67
2018-09-17T13:48:30.746Z,5.05
2018-09-17T13:51:04.373Z,4.22
2018-09-17T13:53:42.785Z,9.60
2018-09-17T13:56:16.487Z,15.85
2018-09-17T13:58:49.186Z,7.47
2018-09-17T14:01:23.043Z,7.60
2018-09-17T14:03:55.803Z,11.05
2018-09-17T14:06:28.559Z,7.35
2018-09-17T14:09:01.264Z,6.12
2018-09-17T14:11:33.970Z,6.85
2018-09-17T14:14:06.741Z,9.85
2018-09-17T14:18:41.817Z,9.20
2018-09-17T14:21:14.668Z,15.13
2018-09-17T14:23:47.340Z,10.53
2018-09-17T14:26:20.490Z,11.25
2018-09-17T14:28:53.020Z,11.93
2018-09-17T14:31:31.607Z,16.25
2018-09-17T14:34:04.962Z,7.72
2018-09-17T14:36:39.593Z,10.98
2018-09-17T14:39:15.133Z,9.43
2018-09-17T14:41:56.084Z,9.13
2018-09-17T14:44:33.985Z,10.15
2018-09-17T14:47:07.576Z,8.60
2018-09-17T14:49:42.433Z,6.50
2018-09-17T14:52:15.602Z,12.13
2018-09-17T14:54:49.194Z,9.05
2018-09-17T14:57:23.626Z,7.62
2018-09-17T14:59:56.583Z,9.73
2018-09-17T15:02:30.812Z,11.50
2018-09-17T15:05:08.018Z,12.07
2018-09-17T15:07:46.414Z,13.70
2018-09-17T15:10:19.605Z,8.05
2018-09-17T15:12:54.404Z,9.70
2018-09-17T15:15:30.683Z,9.53
2018-09-17T15:18:04.931Z,9.35
2018-09-17T15:20:39.429Z,10.68
2018-09-17T15:23:13.925Z,7.67
2018-09-17T15:25:46.702Z,9.63
2018-09-17T15:28:19.603Z,16.20
2018-09-17T15:30:52.303Z,9.85
2018-09-17T15:33:25.287Z,6.70
2018-09-17T15:36:01.440Z,9.50
2018-09-17T15:38:38.012Z,11.65
2018-09-17T15:41:12.661Z,9.50
2018-09-17T15:43:45.256Z,13.78
2018-09-17T15:46:20.257Z,10.75
2018-09-17T15:48:52.932Z,10.20
2018-09-17T15:51:26.479Z,13.95
2018-09-17T15:53:59.163Z,11.28
2018-09-17T15:56:32.195Z,12.53
2018-09-17T15:59:05.424Z,14.93
2018-09-17T16:01:38.350Z,14.60
2018-09-17T16:04:11.218Z,9.55
2018-09-17T16:06:43.990Z,10.13
2018-09-17T16:09:16.746Z,13.60
2018-09-17T16:11:49.535Z,10.82
2018-09-17T16:14:26.396Z,17.20
2018-09-17T16:16:59.122Z,19.35
2018-09-17T16:19:35.251Z,19.02
2018-09-17T16:22:08.076Z,8.60
2018-09-17T16:24:41.151Z,13.50
2018-09-17T16:27:18.601Z,12.58
2018-09-17T16:29:51.404Z,13.55
2018-09-17T16:32:27.990Z,16.65
2018-09-17T16:35:02.307Z,15.58
2018-09-17T16:37:37.466Z,18.20
2018-09-17T16:40:12.461Z,17.27
2018-09-17T16:42:46.807Z,20.23
2018-09-17T16:45:19.954Z,22.27
2018-09-17T16:47:52.706Z,21.85
2018-09-17T16:50:25.673Z,14.43
2018-09-17T16:52:59.900Z,19.77
2018-09-17T16:55:33.114Z,19.60
2018-09-17T16:58:06.006Z,16.85
2018-09-17T17:00:39.533Z,20.52
2018-09-17T17:03:12.547Z,23.10
2018-09-17T17:05:45.367Z,17.60
2018-09-17T17:08:19.248Z,15.05
2018-09-17T17:10:53.379Z,12.15
2018-09-17T17:13:27.255Z,21.42
2018-09-17T17:16:03.330Z,26.50
2018-09-17T17:18:37.865Z,23.50
2018-09-17T17:21:12.309Z,12.25
2018-09-17T17:23:46.011Z,13.30
2018-09-17T17:26:21.983Z,19.75
2018-09-17T17:28:57.368Z,20.55
2018-09-17T17:31:31.425Z,19.73
2018-09-17T17:34:04.980Z,19.75
2018-09-17T17:36:38.908Z,14.53
2018-09-17T17:39:14.166Z,30.00
2018-09-17T17:41:47.796Z,20.97
2018-09-17T17:44:21.169Z,17.40
2018-09-17T17:47:01.483Z,12.83
2018-09-17T17:49:34.261Z,17.70
2018-09-17T17:52:09.880Z,15.67
2018-09-17T17:54:45.299Z,14.35
2018-09-17T17:57:19.433Z,22.10
2018-09-17T17:59:52.844Z,13.58
2018-09-17T18:02:27.573Z,26.42
2018-09-17T18:05:01.624Z,16.90
2018-09-17T18:07:36.322Z,16.67
2018-09-17T18:10:10.380Z,17.82
2018-09-17T18:12:44.969Z,14.05
2018-09-17T18:15:21.673Z,16.60
2018-09-17T18:17:55.549Z,20.00
2018-09-17T18:20:29.810Z,11.83
2018-09-17T18:23:03.072Z,17.07
2018-09-17T18:25:36.177Z,19.10
2018-09-17T18:30:55.263Z,23.47
2018-09-17T18:33:29.889Z,18.20
2018-09-17T18:36:03.623Z,19.32
2018-09-17T18:38:38.446Z,16.77
2018-09-17T18:43:55.492Z,16.90
2018-09-17T18:46:32.687Z,14.97
2018-09-17T18:49:13.345Z,12.75
2018-09-17T18:51:50.155Z,18.67
2018-09-17T18:54:24.597Z,12.78
2018-09-17T18:56:59.420Z,17.35
2018-09-17T18:59:46.716Z,15.33
2018-09-17T19:02:24.841Z,16.23
2018-09-17T19:05:00.209Z,17.12
2018-09-17T19:11:02.483Z,11.63
2018-09-17T19:13:36.632Z,13.68
2018-09-17T19:16:21.756Z,14.53
2018-09-17T19:18:57.208Z,10.85
2018-09-17T19:21:36.167Z,14.18
2018-09-17T19:24:09.625Z,17.32
2018-09-17T19:26:46.126Z,16.57
2018-09-17T19:29:21.529Z,17.23
2018-09-17T19:31:55.253Z,15.00
2018-09-17T19:34:28.842Z,13.50
2018-09-17T19:37:09.634Z,11.33
2018-09-17T19:39:50.471Z,15.72
2018-09-17T19:42:25.227Z,10.60
2018-09-17T19:45:12.329Z,12.53
2018-09-17T19:47:53.517Z,8.93
2018-09-17T19:50:32.685Z,18.73
2018-09-17T19:53:07.780Z,14.75
2018-09-17T19:55:42.591Z,14.83
2018-09-17T20:00:27.856Z,16.07
2018-09-17T20:03:01.713Z,13.18
2018-09-17T20:05:41.628Z,13.18
2018-09-17T20:08:16.265Z,13.08
2018-09-17T20:10:50.062Z,18.65
2018-09-17T20:13:24.312Z,19.37
2018-09-17T20:16:02.089Z,10.68
2018-09-17T20:18:36.447Z,11.43
2018-09-17T20:21:09.362Z,7.78
2018-09-17T20:23:42.206Z,11.70
2018-09-17T20:26:15.723Z,15.90
2018-09-17T20:28:53.693Z,17.75
2018-09-17T20:31:26.484Z,13.28
2018-09-17T20:33:59.389Z,6.47
2018-09-17T20:36:32.233Z,8.43
2018-09-17T20:39:07.608Z,10.23
2018-09-17T20:41:40.407Z,15.70
2018-09-17T20:44:13.238Z,16.45
2018-09-17T20:46:46.094Z,12.07
2018-09-17T20:49:18.908Z,13.95
2018-09-17T20:51:51.758Z,10.70
2018-09-17T20:54:24.693Z,10.18
2018-09-17T20:56:57.504Z,10.00
2018-09-17T20:59:30.378Z,7.17
2018-09-17T21:02:03.088Z,14.07
2018-09-17T21:04:36.029Z,9.95
2018-09-17T21:07:08.927Z,12.83
2018-09-17T21:09:42.697Z,15.20
2018-09-17T21:12:15.465Z,15.37
2018-09-17T21:14:48.423Z,14.63
2018-09-17T21:17:21.342Z,16.07
2018-09-17T21:19:54.272Z,12.77
2018-09-17T21:22:27.069Z,10.82
2018-09-17T21:24:59.948Z,13.22
2018-09-17T21:27:32.631Z,14.05
2018-09-17T21:30:06.075Z,13.22
2018-09-17T21:32:38.858Z,13.17
2018-09-17T21:35:11.564Z,11.35
2018-09-17T21:37:44.274Z,12.87
2018-09-17T21:40:17.034Z,7.43
2018-09-17T21:42:49.785Z,13.10
2018-09-17T21:45:22.354Z,13.77
2018-09-17T21:47:55.721Z,12.40
2018-09-17T21:50:28.392Z,17.15
2018-09-17T21:53:01.192Z,13.93
2018-09-17T21:55:34.109Z,11.15
2018-09-17T21:58:06.760Z,15.60
2018-09-17T22:00:45.114Z,12.68
2018-09-17T22:03:17.850Z,11.95
2018-09-17T22:05:50.552Z,16.42
2018-09-17T22:08:23.237Z,13.58
2018-09-17T22:10:55.949Z,17.10
2018-09-17T22:13:28.661Z,16.30
2018-09-17T22:16:01.373Z,11.20
2018-09-17T22:18:34.197Z,17.42
2018-09-17T22:21:06.896Z,21.07
2018-09-17T22:23:39.603Z,18.60
2018-09-17T22:26:12.300Z,15.83
2018-09-17T22:28:45.681Z,15.55
2018-09-17T22:31:18.985Z,25.60
2018-09-17T22:33:51.629Z,25.72
2018-09-17T22:36:25.464Z,21.90
2018-09-17T22:38:58.112Z,17.67
2018-09-17T22:41:30.753Z,25.65
2018-09-17T22:44:04.139Z,27.93
2018-09-17T22:46:36.771Z,25.97
2018-09-17T22:49:09.609Z,22.67
2018-09-17T22:51:42.973Z,20.35
2018-09-17T22:54:15.684Z,19.92
2018-09-17T22:56:48.930Z,24.65
2018-09-17T22:59:21.954Z,23.07
2018-09-17T23:01:54.760Z,21.97
2018-09-17T23:04:27.551Z,23.20
2018-09-17T23:07:00.596Z,26.52
2018-09-17T23:09:34.771Z,21.23
2018-09-17T23:12:07.494Z,25.82
2018-09-17T23:14:40.109Z,19.80
2018-09-17T23:17:12.754Z,21.77
2018-09-17T23:19:45.490Z,20.52
2018-09-17T23:22:18.210Z,31.42
2018-09-17T23:24:51.022Z,30.60
2018-09-17T23:27:23.679Z,21.27
2018-09-17T23:29:56.375Z,14.78
2018-09-17T23:32:29.767Z,15.30
2018-09-17T23:35:02.734Z,16.42
2018-09-17T23:37:35.501Z,22.52
2018-09-17T23:40:08.160Z,18.67
2018-09-17T23:42:40.791Z,18.10
2018-09-17T23:45:13.477Z,14.45
2018-09-17T23:47:46.247Z,13.50
2018-09-17T23:50:18.923Z,13.22
2018-09-17T23:52:51.572Z,16.80
2018-09-17T23:55:24.284Z,12.50
2018-09-17T23:57:56.939Z,12.70
